createdAt,value
2022-11-17T11:09:23.241Z,20.72
2022-11-17T11:11:53.562Z,20.74
2022-11-17T11:14:31.376Z,20.73
2022-11-17T11:16:57.798Z,20.75
2022-11-17T11:19:25.244Z,20.76
2022-11-17T11:22:00.909Z,20.78
2022-11-17T11:24:35.062Z,20.78
2022-11-17T11:27:20.034Z,20.80
2022-11-17T11:30:15.160Z,20.81
2022-11-17T11:33:25.679Z,20.81
2022-11-17T11:36:04.765Z,20.82
2022-11-17T11:38:56.371Z,20.82
2022-11-17T11:41:41.436Z,20.82
2022-11-17T11:44:36.051Z,20.83
2022-11-17T11:47:14.172Z,20.83
2022-11-17T11:49:52.352Z,20.83
2022-11-17T11:52:21.554Z,20.84
2022-11-17T11:54:56.440Z,20.86
2022-11-17T11:57:30.510Z,20.87
2022-11-17T12:00:04.333Z,20.86
2022-11-17T12:02:42.868Z,20.87
2022-11-17T12:05:16.439Z,20.89
2022-11-17T12:08:10.339Z,20.89
2022-11-17T12:10:53.469Z,20.91
2022-11-17T12:13:23.828Z,20.90
2022-11-17T12:15:50.670Z,20.91
2022-11-17T12:18:17.020Z,20.92
2022-11-17T12:20:56.167Z,20.93
2022-11-17T12:23:33.502Z,20.92
2022-11-17T12:26:01.699Z,20.95
2022-11-17T12:28:38.110Z,20.93
2022-11-17T12:31:43.707Z,20.95
2022-11-17T12:34:23.082Z,20.95
2022-11-17T12:37:06.033Z,20.96
2022-11-17T12:40:04.541Z,20.95
2022-11-17T12:42:35.452Z,20.96
2022-11-17T12:45:10.626Z,20.97
2022-11-17T12:47:40.313Z,20.97
2022-11-17T12:50:21.748Z,20.98
2022-11-17T12:53:09.478Z,20.99
2022-11-17T12:55:35.758Z,20.99
2022-11-17T12:58:14.147Z,21.00
2022-11-17T13:00:52.789Z,20.98
2022-11-17T13:03:28.262Z,20.98
2022-11-17T13:09:23.053Z,20.98
2022-11-17T13:12:06.915Z,20.98
2022-11-17T13:14:35.076Z,21.00
2022-11-17T13:17:02.684Z,20.99
2022-11-17T13:19:29.006Z,21.00
2022-11-17T13:22:01.845Z,21.01
2022-11-17T13:24:31.541Z,21.00
2022-11-17T13:27:00.069Z,21.00
2022-11-17T13:29:26.573Z,21.00
2022-11-17T13:32:11.732Z,21.01
2022-11-17T13:34:46.529Z,21.00
2022-11-17T13:37:22.287Z,20.99
2022-11-17T13:39:55.699Z,21.00
2022-11-17T13:42:25.170Z,20.99
2022-11-17T13:44:54.733Z,21.02
2022-11-17T13:47:28.112Z,21.02
2022-11-17T13:49:54.533Z,21.03
2022-11-17T13:52:42.182Z,21.02
2022-11-17T13:55:19.862Z,21.03
2022-11-17T13:58:05.437Z,21.04
2022-11-17T14:00:32.457Z,21.04
2022-11-17T14:03:04.796Z,21.04
2022-11-17T14:05:32.774Z,21.06
2022-11-17T14:08:13.292Z,21.07
2022-11-17T14:10:40.067Z,21.05
2022-11-17T14:13:06.363Z,21.08
2022-11-17T14:15:37.420Z,21.09
2022-11-17T14:18:25.509Z,21.10
2022-11-17T14:21:15.112Z,21.10
2022-11-17T14:23:42.894Z,21.10
2022-11-17T14:26:23.941Z,21.10
2022-11-17T14:28:52.036Z,21.09
2022-11-17T14:31:19.209Z,21.10
2022-11-17T14:33:46.005Z,21.05
2022-11-17T14:36:16.640Z,21.02
2022-11-17T14:38:44.680Z,21.02
2022-11-17T14:41:11.016Z,21.05
2022-11-17T14:43:37.448Z,21.06
2022-11-17T14:46:03.984Z,21.06
2022-11-17T14:48:30.435Z,21.09
2022-11-17T14:50:58.322Z,21.08
2022-11-17T14:53:25.659Z,21.09
2022-11-17T14:55:53.210Z,21.09
2022-11-17T14:58:20.079Z,21.09
2022-11-17T15:00:46.483Z,21.09
2022-11-17T15:03:12.957Z,21.10
2022-11-17T15:05:46.201Z,21.10
2022-11-17T15:08:12.884Z,21.11
2022-11-17T15:10:45.702Z,21.10
2022-11-17T15:13:12.562Z,21.09
2022-11-17T15:15:39.048Z,21.09
2022-11-17T15:18:05.534Z,21.07
2022-11-17T15:20:31.907Z,21.05
2022-11-17T15:23:03.061Z,21.03
2022-11-17T15:25:29.951Z,21.04
2022-11-17T15:27:56.679Z,21.06
2022-11-17T15:30:23.062Z,21.06
2022-11-17T15:32:49.431Z,21.07
2022-11-17T15:35:15.940Z,21.07
2022-11-17T15:37:42.329Z,21.08
2022-11-17T15:40:09.360Z,21.08
2022-11-17T15:42:35.795Z,21.08
2022-11-17T15:45:02.198Z,21.09
2022-11-17T15:47:28.531Z,21.10
2022-11-17T15:49:58.385Z,21.12
2022-11-17T15:52:41.475Z,21.12
2022-11-17T15:55:11.614Z,21.10
2022-11-17T15:57:37.936Z,21.11
2022-11-17T16:00:06.700Z,21.12
2022-11-17T16:02:33.066Z,21.12
2022-11-17T16:04:59.442Z,21.12
2022-11-17T16:07:25.871Z,21.10
2022-11-17T16:09:52.806Z,21.12
2022-11-17T16:12:19.305Z,21.07
2022-11-17T16:14:45.686Z,21.05
2022-11-17T16:17:12.033Z,21.03
2022-11-17T16:19:38.401Z,21.02
2022-11-17T16:22:04.736Z,21.00
2022-11-17T16:24:31.040Z,20.99
2022-11-17T16:26:57.344Z,20.97
2022-11-17T16:29:24.755Z,20.96
2022-11-17T16:31:51.068Z,20.92
2022-11-17T16:34:18.821Z,20.91
2022-11-17T16:36:45.282Z,20.90
2022-11-17T16:39:15.409Z,20.89
2022-11-17T16:41:45.304Z,20.88
2022-11-17T16:44:14.503Z,20.88
2022-11-17T16:46:43.369Z,20.91
2022-11-17T16:49:12.574Z,20.92
2022-11-17T16:51:39.343Z,20.93
2022-11-17T16:54:10.793Z,20.96
2022-11-17T16:56:37.204Z,20.95
2022-11-17T16:59:04.028Z,20.96
2022-11-17T17:01:32.933Z,20.97
2022-11-17T17:04:05.157Z,21.00
2022-11-17T17:06:31.732Z,21.01
2022-11-17T17:09:01.068Z,21.02
2022-11-17T17:11:29.173Z,21.02
2022-11-17T17:13:59.991Z,21.01
2022-11-17T17:16:26.401Z,21.02
2022-11-17T17:18:59.315Z,21.02
2022-11-17T17:21:26.980Z,21.02
2022-11-17T17:23:53.821Z,21.01
2022-11-17T17:26:22.441Z,21.03
2022-11-17T17:28:51.008Z,21.03
2022-11-17T17:31:21.602Z,21.05
2022-11-17T17:33:50.223Z,21.05
2022-11-17T17:36:19.867Z,21.07
2022-11-17T17:38:51.838Z,21.07
2022-11-17T17:41:23.141Z,21.08
2022-11-17T17:43:55.164Z,21.07
2022-11-17T17:46:21.541Z,21.09
2022-11-17T17:48:47.871Z,21.09
2022-11-17T17:51:19.555Z,21.10
2022-11-17T17:53:49.999Z,21.11
2022-11-17T17:56:18.986Z,21.10
2022-11-17T17:58:46.822Z,21.12
2022-11-17T18:01:17.199Z,21.12
2022-11-17T18:03:48.078Z,21.12
2022-11-17T18:06:16.646Z,21.12
2022-11-17T18:08:43.709Z,21.13
2022-11-17T18:11:13.051Z,21.13
2022-11-17T18:13:41.777Z,21.13
2022-11-17T18:16:23.245Z,21.10
2022-11-17T18:18:50.525Z,21.13
2022-11-17T18:21:19.169Z,21.13
2022-11-17T18:23:45.815Z,21.12
2022-11-17T18:26:18.368Z,21.12
2022-11-17T18:28:51.098Z,21.12
2022-11-17T18:31:17.452Z,21.12
2022-11-17T18:33:46.884Z,21.13
2022-11-17T18:36:13.281Z,21.12
2022-11-17T18:38:39.674Z,21.13
2022-11-17T18:41:12.295Z,21.13
2022-11-17T18:43:39.295Z,21.12
2022-11-17T18:46:08.459Z,21.15
2022-11-17T18:48:37.228Z,21.17
2022-11-17T18:51:22.237Z,21.15
2022-11-17T18:53:49.923Z,21.17
2022-11-17T18:56:18.516Z,21.19
2022-11-17T18:58:45.176Z,21.20
2022-11-17T19:01:14.526Z,21.22
2022-11-17T19:03:42.546Z,21.24
2022-11-17T19:06:09.681Z,21.26
2022-11-17T19:08:37.073Z,21.25
2022-11-17T19:11:06.508Z,21.25
2022-11-17T19:13:35.158Z,21.24
2022-11-17T19:16:12.296Z,21.24
2022-11-17T19:18:39.312Z,21.25
2022-11-17T19:21:08.438Z,21.25
2022-11-17T19:23:36.385Z,21.25
2022-11-17T19:26:05.059Z,21.26
2022-11-17T19:28:31.975Z,21.26
2022-11-17T19:31:09.464Z,21.28
2022-11-17T19:33:37.323Z,21.28
2022-11-17T19:36:08.738Z,21.28
2022-11-17T19:38:38.278Z,21.30
2022-11-17T19:41:10.292Z,21.31
2022-11-17T19:43:43.390Z,21.30
2022-11-17T19:46:13.484Z,21.31
2022-11-17T19:48:41.007Z,21.31
2022-11-17T19:51:14.620Z,21.31
2022-11-17T19:53:41.455Z,21.30
2022-11-17T19:56:08.626Z,21.32
2022-11-17T19:58:35.077Z,21.32
2022-11-17T20:01:15.500Z,21.31
2022-11-17T20:03:42.806Z,21.33
2022-11-17T20:06:12.505Z,21.35
2022-11-17T20:08:39.535Z,21.35
2022-11-17T20:11:07.268Z,21.37
2022-11-17T20:13:33.741Z,21.40
2022-11-17T20:16:01.261Z,21.42
2022-11-17T20:18:28.369Z,21.42
2022-11-17T20:20:54.784Z,21.40
2022-11-17T20:23:21.408Z,21.41
2022-11-17T20:25:47.973Z,21.41
2022-11-17T20:28:14.781Z,21.39
2022-11-17T20:30:41.487Z,21.40
2022-11-17T20:33:07.863Z,21.39
2022-11-17T20:35:35.605Z,21.38
2022-11-17T20:38:04.901Z,21.39
2022-11-17T20:40:32.632Z,21.40
2022-11-17T20:42:59.677Z,21.41
2022-11-17T20:45:26.125Z,21.41
2022-11-17T20:47:52.495Z,21.40
2022-11-17T20:50:18.868Z,21.39
2022-11-17T20:52:45.236Z,21.39
2022-11-17T20:55:11.562Z,21.39
2022-11-17T20:57:38.382Z,21.38
2022-11-17T21:00:05.712Z,21.39
2022-11-17T21:02:32.115Z,21.38
2022-11-17T21:04:58.419Z,21.38
2022-11-17T21:07:24.837Z,21.37
2022-11-17T21:09:51.242Z,21.39
2022-11-17T21:12:17.583Z,21.39
2022-11-17T21:14:43.890Z,21.40
2022-11-17T21:17:30.323Z,21.40
2022-11-17T21:19:56.737Z,21.40
2022-11-17T21:22:23.059Z,21.40
2022-11-17T21:24:49.433Z,21.38
2022-11-17T21:27:19.674Z,21.37
2022-11-17T21:29:46.615Z,21.37
2022-11-17T21:32:12.966Z,21.36
2022-11-17T21:34:39.353Z,21.35
2022-11-17T21:37:05.798Z,21.36
2022-11-17T21:39:32.126Z,21.35
2022-11-17T21:41:58.492Z,21.34
2022-11-17T21:44:24.809Z,21.34
2022-11-17T21:46:51.152Z,21.34
2022-11-17T21:49:17.754Z,21.30
2022-11-17T21:51:45.379Z,21.30
2022-11-17T21:54:11.749Z,21.28
2022-11-17T21:56:38.309Z,21.27
2022-11-17T21:59:12.583Z,21.25
2022-11-17T22:01:39.889Z,21.24
2022-11-17T22:04:06.493Z,21.21
2022-11-17T22:06:32.999Z,21.21
2022-11-17T22:08:59.487Z,21.21
2022-11-17T22:11:37.842Z,21.19
2022-11-17T22:14:13.574Z,21.15
2022-11-17T22:16:45.076Z,21.16
2022-11-17T22:19:13.323Z,21.18
2022-11-17T22:21:40.583Z,21.17
2022-11-17T22:24:09.965Z,21.17
2022-11-17T22:26:38.234Z,21.18
2022-11-17T22:29:07.119Z,21.19
2022-11-17T22:31:33.719Z,21.19
2022-11-17T22:34:00.089Z,21.20
2022-11-17T22:36:26.412Z,21.19
2022-11-17T22:38:53.229Z,21.20
2022-11-17T22:41:20.972Z,21.18
2022-11-17T22:43:55.341Z,21.19
2022-11-17T22:46:23.917Z,21.18
2022-11-17T22:48:50.333Z,21.20
2022-11-17T22:51:37.124Z,21.18
2022-11-17T22:54:04.850Z,21.17
2022-11-17T22:56:31.806Z,21.17
2022-11-17T22:58:59.859Z,21.16
2022-11-17T23:01:26.460Z,21.17
2022-11-17T23:03:52.904Z,21.17
2022-11-17T23:06:19.389Z,21.16
2022-11-17T23:08:45.705Z,21.16
2022-11-17T23:13:58.522Z,21.16
2022-11-17T23:16:24.979Z,21.15
2022-11-17T23:18:55.715Z,21.15
2022-11-17T23:21:23.320Z,21.15
2022-11-17T23:23:50.078Z,21.15
2022-11-17T23:26:16.556Z,21.14
2022-11-17T23:28:43.515Z,21.14
2022-11-17T23:31:13.140Z,21.13
2022-11-17T23:33:44.818Z,21.12
2022-11-17T23:36:16.879Z,21.12
2022-11-17T23:38:44.229Z,21.13
2022-11-17T23:41:13.510Z,21.13
2022-11-17T23:43:40.346Z,21.12
2022-11-17T23:46:10.722Z,21.11
2022-11-17T23:48:37.408Z,21.10
2022-11-17T23:51:07.980Z,21.10
2022-11-17T23:53:34.830Z,21.09
2022-11-17T23:56:01.850Z,21.09
2022-11-17T23:58:29.059Z,21.07
